Cleveland, Ohio
Traffic Map
Current Weather Conditions
Cleveland, Ohio
Overcast
Overcast
11°
Feels Like: 11°
Wind Chill: 11° Ceiling: 2800
Heat Index: 11° Visibility: 10mi
Dew Point: Wind: 21mph
Humidity: 77% Direction: 320° (NW)
Pressure: 29.95in Gusts: 28mph
Raw Report DataKBKL 211653Z 32018G24KT 10SM SCT021 BKN028 OVC038 11/07 A2995 RMK AO2 PK WND 35028/1554 SLP144 T01060067
Traffic Incident Summary
Active as of:
Severity:
Category:
InformationThere was an issue retrieving the traffic information for this location. Please try a different location or try again shortly.
Advertisements
Track Severe Weather on mobile